This is the latest recevied weather packets stored in our database for station/object EA1GCN-10. If no packets are shown the sender has not sent any weather packets the latest 10 day(s).
| Time | Temp. | Humidity | Pressure | Rain* | Wind** | Luminosity | Snow |
|---|---|---|---|---|---|---|---|
| 1778119923 | 19.44° C | 59% | 1012 hPa | - | - | - | - |
| 1778118123 | 19.44° C | 58% | 1012 hPa | - | - | - | - |
| 1778116323 | 19.44° C | 57% | 1013 hPa | - | - | - | - |
| 1778114523 | 19.44° C | 57% | 1013 hPa | - | - | - | - |
| 1778112723 | 19.44° C | 57% | 1013 hPa | - | - | - | - |
| 1778110923 | 20° C | 56% | 1013 hPa | - | - | - | - |
| 1778109123 | 20° C | 56% | 1013 hPa | - | - | - | - |
| 1778107322 | 20° C | 56% | 1013 hPa | - | - | - | - |
| 1778105522 | 20° C | 56% | 1014 hPa | - | - | - | - |
| 1778103722 | 20° C | 56% | 1014 hPa | - | - | - | - |
| 1778101922 | 20° C | 55% | 1014 hPa | - | - | - | - |
| 1778100122 | 20° C | 55% | 1014 hPa | - | - | - | - |
| 1778098322 | 20° C | 55% | 1014 hPa | - | - | - | - |
| 1778096522 | 20.56° C | 54% | 1014 hPa | - | - | - | - |
| 1778094722 | 20.56° C | 52% | 1014 hPa | - | - | - | - |
| 1778092921 | 21.11° C | 50% | 1014 hPa | - | - | - | - |
| 1778091121 | 21.11° C | 48% | 1014 hPa | - | - | - | - |
| 1778089321 | 21.11° C | 48% | 1014 hPa | - | - | - | - |
| 1778087521 | 20.56° C | 50% | 1014 hPa | - | - | - | - |
| 1778085721 | 21.11° C | 47% | 1014 hPa | - | - | - | - |
| 1778083921 | 21.11° C | 45% | 1014 hPa | - | - | - | - |
| 1778082121 | 21.11° C | 45% | 1014 hPa | - | - | - | - |
| 1778080320 | 23.33° C | 39% | 1014 hPa | - | - | - | - |
| 1778078519 | 25° C | 37% | 1014 hPa | - | - | - | - |
| 1778076719 | 22.22° C | 43% | 1014 hPa | - | - | - | - |
* Rain since midnight (hover to see other rain measurements)
** Current wind speed in m/s (hover to see current wind gust speed)